createdAt,value
2019-03-18T00:02:08.630Z,83.14
2019-03-18T00:04:39.908Z,83.42
2019-03-18T00:07:11.213Z,83.53
2019-03-18T00:09:42.527Z,83.82
2019-03-18T00:12:13.790Z,83.71
2019-03-18T00:14:45.087Z,83.77
2019-03-18T00:17:16.363Z,84.02
2019-03-18T00:19:47.662Z,84.26
2019-03-18T00:22:18.958Z,84.11
2019-03-18T00:24:50.263Z,84.21
2019-03-18T00:27:21.555Z,84.42
2019-03-18T00:29:52.812Z,84.45
2019-03-18T00:32:24.150Z,84.67
2019-03-18T00:34:55.560Z,84.49
2019-03-18T00:37:26.836Z,84.67
2019-03-18T00:39:58.146Z,85.18
2019-03-18T00:42:29.432Z,85.19
2019-03-18T00:45:13.795Z,85.48
2019-03-18T00:47:33.712Z,85.27
2019-03-18T00:50:05.839Z,85.64
2019-03-18T00:52:37.107Z,85.81
2019-03-18T00:55:08.595Z,85.43
2019-03-18T00:57:39.880Z,86.06
2019-03-18T01:00:11.489Z,85.70
2019-03-18T01:02:42.817Z,85.53
2019-03-18T01:05:14.420Z,85.70
2019-03-18T01:07:45.935Z,85.95
2019-03-18T01:10:17.298Z,86.22
2019-03-18T01:12:48.591Z,86.52
2019-03-18T01:15:27.965Z,86.42
2019-03-18T01:17:52.922Z,85.97
2019-03-18T01:20:24.182Z,86.48
2019-03-18T01:22:58.271Z,86.67
2019-03-18T01:25:29.572Z,86.51
2019-03-18T01:28:00.827Z,87.03
2019-03-18T01:30:32.120Z,86.69
2019-03-18T01:33:03.436Z,86.80
2019-03-18T01:35:34.799Z,86.71
2019-03-18T01:38:06.075Z,86.75
2019-03-18T01:40:37.302Z,86.85
2019-03-18T01:43:08.652Z,87.06
2019-03-18T01:45:41.153Z,87.37
2019-03-18T01:48:12.585Z,87.07
2019-03-18T01:50:43.850Z,86.85
2019-03-18T01:53:15.144Z,87.36
2019-03-18T01:55:46.439Z,87.31
2019-03-18T01:58:17.727Z,87.01
2019-03-18T02:00:49.060Z,87.46
2019-03-18T02:03:20.423Z,87.48
2019-03-18T02:05:51.730Z,87.26
2019-03-18T02:08:22.991Z,87.30
2019-03-18T02:10:54.291Z,87.50
2019-03-18T02:13:25.601Z,87.10
2019-03-18T02:15:56.913Z,86.84
2019-03-18T02:18:28.204Z,86.77
2019-03-18T02:20:59.472Z,86.77
2019-03-18T02:23:30.762Z,86.90
2019-03-18T02:26:02.037Z,86.57
2019-03-18T02:28:33.339Z,87.35
2019-03-18T02:31:04.605Z,86.96
2019-03-18T02:33:35.938Z,87.39
2019-03-18T02:36:07.230Z,87.13
2019-03-18T02:38:38.480Z,86.73
2019-03-18T02:41:09.775Z,87.29
2019-03-18T02:43:41.118Z,86.82
2019-03-18T02:46:12.400Z,87.17
2019-03-18T02:48:43.658Z,86.67
2019-03-18T02:51:14.953Z,86.55
2019-03-18T02:53:46.238Z,86.70
2019-03-18T02:56:17.506Z,86.54
2019-03-18T02:58:48.759Z,87.16
2019-03-18T03:01:20.055Z,87.91
2019-03-18T03:03:51.313Z,87.88
2019-03-18T03:06:22.612Z,88.36
2019-03-18T03:08:53.972Z,88.85
2019-03-18T03:11:25.251Z,89.50
2019-03-18T03:13:56.665Z,90.26
2019-03-18T03:16:28.065Z,90.64
2019-03-18T03:18:59.393Z,90.31
2019-03-18T03:21:30.678Z,90.67
2019-03-18T03:24:01.961Z,90.71
2019-03-18T03:26:33.235Z,90.44
2019-03-18T03:29:04.525Z,91.17
2019-03-18T03:31:35.826Z,91.30
2019-03-18T03:34:12.865Z,91.31
2019-03-18T03:36:42.847Z,91.19
2019-03-18T03:39:14.158Z,91.00
2019-03-18T03:41:45.474Z,91.43
2019-03-18T03:44:16.795Z,91.47
2019-03-18T03:46:48.130Z,91.35
2019-03-18T03:49:19.421Z,91.31
2019-03-18T03:51:50.706Z,91.64
2019-03-18T03:54:21.974Z,92.10
2019-03-18T03:56:53.634Z,92.11
2019-03-18T03:59:25.193Z,92.12
2019-03-18T04:01:56.493Z,91.83
2019-03-18T04:04:27.790Z,91.56
2019-03-18T04:06:59.129Z,91.81
2019-03-18T04:09:30.500Z,91.78
2019-03-18T04:12:01.884Z,92.42
2019-03-18T04:14:33.239Z,92.91
2019-03-18T04:17:04.538Z,93.19
2019-03-18T04:19:35.845Z,93.16
2019-03-18T04:22:07.157Z,92.80
2019-03-18T04:24:38.457Z,93.18
2019-03-18T04:27:09.719Z,92.79
2019-03-18T04:29:41.111Z,92.83
2019-03-18T04:32:12.404Z,92.87
2019-03-18T04:34:43.651Z,93.19
2019-03-18T04:37:14.930Z,93.26
2019-03-18T04:39:46.186Z,93.51
2019-03-18T04:42:17.480Z,93.47
2019-03-18T04:44:48.738Z,93.87
2019-03-18T04:47:20.001Z,94.20
2019-03-18T04:49:51.300Z,94.27
2019-03-18T04:52:22.574Z,94.05
2019-03-18T04:54:53.889Z,93.97
2019-03-18T04:57:25.185Z,94.08
2019-03-18T04:59:56.536Z,94.65
2019-03-18T05:02:27.846Z,94.72
2019-03-18T05:04:59.099Z,94.86
2019-03-18T05:07:30.348Z,94.59
2019-03-18T05:10:01.635Z,94.76
2019-03-18T05:12:32.893Z,95.12
2019-03-18T05:15:04.278Z,94.91
2019-03-18T05:17:35.688Z,95.37
2019-03-18T05:20:07.209Z,95.64
2019-03-18T05:22:38.518Z,95.78
2019-03-18T05:25:10.192Z,96.06
2019-03-18T05:27:41.517Z,95.81
2019-03-18T05:30:12.959Z,95.53
2019-03-18T05:32:44.285Z,95.17
2019-03-18T05:35:15.611Z,95.18
2019-03-18T05:37:46.895Z,95.56
2019-03-18T05:40:18.282Z,94.85
2019-03-18T05:42:49.598Z,94.77
2019-03-18T05:45:20.887Z,94.80
2019-03-18T05:47:52.160Z,95.12
2019-03-18T05:50:23.472Z,95.44
2019-03-18T05:52:54.763Z,94.93
2019-03-18T05:55:26.018Z,94.77
2019-03-18T05:57:57.327Z,94.36
2019-03-18T06:00:28.564Z,94.11
2019-03-18T06:02:59.892Z,94.49
2019-03-18T06:05:31.292Z,94.28
2019-03-18T06:08:02.573Z,94.45
2019-03-18T06:10:33.858Z,93.82
2019-03-18T06:13:05.186Z,93.89
2019-03-18T06:15:36.513Z,93.47
2019-03-18T06:18:07.828Z,93.13
2019-03-18T06:20:39.088Z,92.42
2019-03-18T06:23:10.373Z,92.59
2019-03-18T06:25:41.645Z,91.97
2019-03-18T06:28:12.878Z,91.63
2019-03-18T06:30:44.132Z,91.99
2019-03-18T06:33:15.457Z,91.17
2019-03-18T06:35:46.704Z,91.19
2019-03-18T06:38:18.006Z,91.65
2019-03-18T06:40:49.307Z,91.41
2019-03-18T06:43:20.668Z,91.62
2019-03-18T06:45:51.953Z,91.47
2019-03-18T06:48:23.270Z,91.89
2019-03-18T06:50:54.590Z,92.29
2019-03-18T06:53:25.928Z,92.22
2019-03-18T06:55:57.251Z,92.04
2019-03-18T06:58:28.566Z,92.03
2019-03-18T07:00:59.867Z,91.29
2019-03-18T07:03:31.170Z,90.83
2019-03-18T07:06:02.453Z,90.96
2019-03-18T07:08:33.711Z,90.87
2019-03-18T07:11:05.033Z,90.66
2019-03-18T07:13:36.326Z,90.45
2019-03-18T07:16:07.575Z,90.16
2019-03-18T07:18:38.910Z,89.88
2019-03-18T07:21:10.188Z,89.43
2019-03-18T07:23:42.564Z,89.26
2019-03-18T07:26:13.862Z,89.05
2019-03-18T07:28:45.177Z,89.00
2019-03-18T07:31:16.501Z,88.35
2019-03-18T07:33:47.796Z,88.12
2019-03-18T07:36:19.098Z,87.83
2019-03-18T07:38:50.373Z,88.22
2019-03-18T07:41:24.744Z,87.81
2019-03-18T07:43:56.022Z,87.17
2019-03-18T07:46:27.304Z,85.62
2019-03-18T07:48:58.649Z,83.90
2019-03-18T07:51:30.000Z,83.25
2019-03-18T07:54:01.264Z,81.82
2019-03-18T07:56:32.525Z,81.88
2019-03-18T07:59:03.821Z,82.08
2019-03-18T08:01:35.081Z,81.69
2019-03-18T08:04:06.428Z,81.28
2019-03-18T08:06:37.698Z,77.05
2019-03-18T08:09:10.199Z,73.64
2019-03-18T08:11:41.459Z,71.71
2019-03-18T08:14:12.710Z,68.80
2019-03-18T08:16:44.053Z,65.60
2019-03-18T08:19:15.318Z,63.84
2019-03-18T08:21:46.673Z,65.94
2019-03-18T08:24:17.945Z,68.71
2019-03-18T08:26:52.153Z,69.81
2019-03-18T08:29:23.456Z,69.43
2019-03-18T08:31:54.735Z,68.94
2019-03-18T08:34:26.018Z,69.05
2019-03-18T08:36:57.311Z,69.41
2019-03-18T08:39:28.562Z,69.56
2019-03-18T08:41:59.855Z,69.26
2019-03-18T08:44:31.127Z,69.11
2019-03-18T08:47:02.378Z,68.02
2019-03-18T08:49:33.748Z,68.42
2019-03-18T08:52:05.949Z,68.18
2019-03-18T08:54:37.214Z,68.69
2019-03-18T08:57:08.516Z,67.97
2019-03-18T08:59:39.778Z,69.19
2019-03-18T09:02:11.074Z,69.03
2019-03-18T09:04:42.334Z,68.30
2019-03-18T09:07:13.599Z,66.72
2019-03-18T09:09:44.872Z,65.73
2019-03-18T09:12:16.138Z,62.73
2019-03-18T09:14:47.455Z,60.14
2019-03-18T09:17:18.740Z,59.66
2019-03-18T09:19:50.021Z,59.15
2019-03-18T09:22:21.349Z,58.21
2019-03-18T09:24:52.641Z,56.89
2019-03-18T09:27:23.959Z,55.13
2019-03-18T09:29:55.289Z,56.01
2019-03-18T09:32:26.538Z,55.34
2019-03-18T09:34:57.848Z,54.69
2019-03-18T09:37:29.160Z,54.62
2019-03-18T09:40:00.495Z,55.00
2019-03-18T09:42:31.820Z,54.64
2019-03-18T09:45:03.153Z,54.63
2019-03-18T09:47:34.468Z,53.81
2019-03-18T09:50:08.871Z,52.68
2019-03-18T09:52:40.187Z,50.49
2019-03-18T09:55:11.500Z,50.79
2019-03-18T09:57:42.760Z,49.71
2019-03-18T10:00:14.478Z,49.78
2019-03-18T10:02:45.760Z,48.93
2019-03-18T10:05:17.077Z,50.31
2019-03-18T10:07:48.554Z,49.56
2019-03-18T10:10:19.851Z,49.84
2019-03-18T10:12:51.178Z,50.53
2019-03-18T10:15:22.468Z,50.42
2019-03-18T10:17:53.784Z,49.90
2019-03-18T10:20:25.068Z,48.87
2019-03-18T10:22:56.344Z,49.49
2019-03-18T10:25:27.638Z,47.87
2019-03-18T10:27:58.946Z,48.45
2019-03-18T10:30:30.214Z,48.19
2019-03-18T10:33:01.520Z,46.48
2019-03-18T10:35:32.824Z,45.73
2019-03-18T10:38:04.107Z,43.30
2019-03-18T10:40:35.459Z,43.61
2019-03-18T10:43:06.794Z,41.83
2019-03-18T10:45:38.217Z,42.19
2019-03-18T10:48:09.490Z,42.64
2019-03-18T10:50:40.829Z,44.21
2019-03-18T10:53:12.131Z,43.89
2019-03-18T10:55:43.403Z,44.88
2019-03-18T10:58:14.701Z,47.75
2019-03-18T11:00:47.282Z,48.80
2019-03-18T11:03:18.551Z,50.81
2019-03-18T11:05:49.807Z,50.49
2019-03-18T11:08:21.148Z,49.66
2019-03-18T11:10:52.504Z,48.49
2019-03-18T11:13:23.802Z,48.51
2019-03-18T11:15:55.178Z,48.04
2019-03-18T11:18:26.478Z,47.55
2019-03-18T11:20:57.790Z,45.69
2019-03-18T11:23:29.153Z,45.72
2019-03-18T11:26:00.450Z,46.41
2019-03-18T11:28:31.720Z,46.88
2019-03-18T11:31:02.972Z,47.48
2019-03-18T11:33:34.242Z,49.20
2019-03-18T11:36:05.600Z,50.57
2019-03-18T11:38:36.883Z,50.73
2019-03-18T11:41:08.190Z,50.90
2019-03-18T11:43:39.481Z,49.59
2019-03-18T11:46:10.773Z,50.05
2019-03-18T11:48:42.069Z,49.31
2019-03-18T11:51:13.405Z,50.59
2019-03-18T11:53:44.682Z,55.10
2019-03-18T11:56:15.953Z,56.86
2019-03-18T11:58:47.221Z,58.45
2019-03-18T12:01:18.512Z,55.70
2019-03-18T12:03:49.797Z,58.28
2019-03-18T12:06:21.112Z,57.08
2019-03-18T12:08:52.368Z,58.40
2019-03-18T12:11:23.677Z,59.79
2019-03-18T12:13:54.942Z,58.83
2019-03-18T12:16:26.250Z,60.13
2019-03-18T12:18:57.562Z,60.18
2019-03-18T12:21:28.887Z,60.87
2019-03-18T12:24:00.267Z,59.65
2019-03-18T12:26:31.572Z,57.34
2019-03-18T12:29:02.836Z,55.13
2019-03-18T12:31:34.218Z,55.46
2019-03-18T12:34:05.552Z,53.27
2019-03-18T12:36:36.827Z,52.34
2019-03-18T12:39:08.717Z,52.01
2019-03-18T12:41:40.074Z,50.69
2019-03-18T12:44:11.371Z,51.68
2019-03-18T12:46:42.648Z,50.95
2019-03-18T12:49:13.928Z,52.55
2019-03-18T12:51:45.222Z,52.58
2019-03-18T12:54:16.521Z,52.57
2019-03-18T12:56:47.828Z,52.35
2019-03-18T12:59:19.133Z,50.49
2019-03-18T13:01:50.543Z,49.95
2019-03-18T13:04:22.850Z,49.01
2019-03-18T13:06:54.201Z,48.22
2019-03-18T13:09:25.559Z,48.20
2019-03-18T13:11:56.860Z,47.88
2019-03-18T13:14:28.195Z,47.91
2019-03-18T13:16:59.467Z,47.58
2019-03-18T13:19:30.773Z,45.93
2019-03-18T13:22:02.092Z,44.50
2019-03-18T13:24:33.387Z,45.10
2019-03-18T13:27:04.685Z,43.83
2019-03-18T13:29:36.025Z,43.38
2019-03-18T13:32:07.316Z,41.87
2019-03-18T13:34:38.643Z,41.99
2019-03-18T13:37:09.916Z,41.74
2019-03-18T13:39:41.228Z,42.58
2019-03-18T13:42:12.529Z,40.09
2019-03-18T13:44:43.862Z,38.89
2019-03-18T13:47:15.168Z,39.39
2019-03-18T13:49:46.473Z,41.13
2019-03-18T13:52:17.820Z,40.49
2019-03-18T13:54:49.122Z,39.99
2019-03-18T13:57:20.435Z,39.25
2019-03-18T13:59:51.787Z,37.66
2019-03-18T14:02:23.058Z,36.61
2019-03-18T14:04:54.360Z,37.21
2019-03-18T14:07:25.703Z,37.49
2019-03-18T14:09:56.992Z,37.01
2019-03-18T14:12:28.278Z,36.10
2019-03-18T14:14:59.575Z,35.32
2019-03-18T14:17:30.876Z,35.15
2019-03-18T14:20:02.164Z,34.88
2019-03-18T14:22:33.482Z,32.68
2019-03-18T14:25:05.016Z,33.61
2019-03-18T14:27:36.296Z,32.14
2019-03-18T14:30:10.506Z,32.79
2019-03-18T14:32:41.797Z,33.35
2019-03-18T14:35:13.244Z,32.74
2019-03-18T14:37:44.618Z,32.56
2019-03-18T14:40:15.965Z,32.52
2019-03-18T14:42:47.267Z,32.57
2019-03-18T14:45:19.915Z,33.80
2019-03-18T14:47:51.210Z,33.51
2019-03-18T14:50:22.722Z,33.94
2019-03-18T14:52:54.013Z,34.11
2019-03-18T14:55:25.326Z,33.17
2019-03-18T14:57:59.349Z,33.27
2019-03-18T15:00:30.693Z,34.16
2019-03-18T15:03:01.967Z,37.96
2019-03-18T15:05:33.340Z,41.59
2019-03-18T15:08:04.607Z,43.82
2019-03-18T15:10:35.890Z,45.47
2019-03-18T15:13:07.219Z,46.92
2019-03-18T15:15:38.491Z,48.78
2019-03-18T15:18:09.806Z,50.67
2019-03-18T15:20:41.074Z,50.69
2019-03-18T15:23:12.415Z,51.51
2019-03-18T15:25:43.740Z,52.47
2019-03-18T15:28:15.030Z,52.97
2019-03-18T15:30:46.329Z,53.80
2019-03-18T15:33:17.629Z,54.40
2019-03-18T15:35:48.891Z,55.28
2019-03-18T15:38:20.168Z,55.57
2019-03-18T15:40:51.466Z,56.14
2019-03-18T15:43:22.804Z,55.35
2019-03-18T15:45:54.140Z,54.91
2019-03-18T15:48:25.454Z,55.46
2019-03-18T15:50:56.734Z,54.32
2019-03-18T15:53:28.028Z,54.55
2019-03-18T15:55:59.331Z,54.80
2019-03-18T15:58:30.589Z,54.85
2019-03-18T16:01:01.862Z,54.86
2019-03-18T16:03:33.117Z,55.81
2019-03-18T16:06:04.405Z,55.34
2019-03-18T16:08:35.772Z,55.05
2019-03-18T16:11:07.028Z,54.91
2019-03-18T16:13:38.299Z,55.57
2019-03-18T16:16:09.603Z,55.61
2019-03-18T16:18:40.862Z,55.10
2019-03-18T16:21:12.189Z,54.52
2019-03-18T16:23:43.460Z,54.81
2019-03-18T16:26:14.925Z,53.69
2019-03-18T16:28:46.242Z,54.26
2019-03-18T16:31:17.554Z,54.17
2019-03-18T16:33:48.817Z,54.42
2019-03-18T16:36:20.105Z,54.55
2019-03-18T16:38:51.443Z,54.03
2019-03-18T16:41:22.720Z,53.45
2019-03-18T16:43:54.007Z,53.87
2019-03-18T16:46:25.305Z,53.42
2019-03-18T16:48:56.593Z,53.60
2019-03-18T16:51:27.912Z,53.39
2019-03-18T16:53:59.185Z,53.39
2019-03-18T16:56:30.526Z,53.43
2019-03-18T16:59:01.865Z,54.14
2019-03-18T17:01:33.185Z,54.10
2019-03-18T17:04:04.496Z,53.46
2019-03-18T17:06:37.999Z,53.53
2019-03-18T17:09:09.203Z,53.99
2019-03-18T17:11:40.527Z,54.21
2019-03-18T17:14:11.805Z,53.60
2019-03-18T17:16:43.062Z,53.42
2019-03-18T17:19:14.365Z,53.80
2019-03-18T17:21:45.651Z,52.58
2019-03-18T17:24:16.935Z,50.91
2019-03-18T17:26:48.194Z,51.59
2019-03-18T17:29:19.547Z,51.82
2019-03-18T17:31:50.844Z,52.44
2019-03-18T17:34:22.145Z,51.35
2019-03-18T17:36:53.490Z,51.59
2019-03-18T17:39:24.813Z,51.78
2019-03-18T17:41:56.155Z,52.41
2019-03-18T17:44:27.488Z,53.30
2019-03-18T17:46:58.836Z,53.86
2019-03-18T17:49:30.141Z,52.90
2019-03-18T17:52:01.461Z,53.07
2019-03-18T17:54:32.786Z,52.75
2019-03-18T17:57:07.638Z,53.03
2019-03-18T17:59:37.052Z,52.89
2019-03-18T18:02:08.414Z,53.34
2019-03-18T18:04:39.716Z,53.11
2019-03-18T18:07:11.059Z,53.74
2019-03-18T18:09:42.350Z,54.08
2019-03-18T18:12:13.672Z,53.70
2019-03-18T18:14:44.996Z,53.44
2019-03-18T18:17:16.265Z,54.18
2019-03-18T18:19:47.540Z,54.69
2019-03-18T18:22:18.876Z,55.48
2019-03-18T18:24:50.123Z,55.79
2019-03-18T18:27:21.437Z,55.80
2019-03-18T18:29:52.742Z,56.18
2019-03-18T18:32:24.021Z,56.14
2019-03-18T18:34:55.401Z,56.33
2019-03-18T18:37:26.823Z,56.47
2019-03-18T18:39:58.086Z,56.84
2019-03-18T18:42:29.405Z,57.38
2019-03-18T18:45:00.703Z,57.14
2019-03-18T18:47:32.009Z,57.43
2019-03-18T18:50:03.361Z,57.60
2019-03-18T18:52:34.645Z,57.86
2019-03-18T18:55:06.276Z,57.28
2019-03-18T18:57:37.580Z,57.43
2019-03-18T19:00:11.699Z,58.18
2019-03-18T19:02:43.034Z,58.75
2019-03-18T19:05:14.998Z,58.96
2019-03-18T19:07:46.412Z,59.48
2019-03-18T19:10:17.756Z,59.87
2019-03-18T19:12:49.116Z,60.28
2019-03-18T19:15:21.473Z,60.44
2019-03-18T19:17:52.756Z,60.29
2019-03-18T19:20:24.130Z,60.36
2019-03-18T19:22:55.388Z,60.42
2019-03-18T19:25:26.668Z,60.51
2019-03-18T19:27:58.021Z,60.70
2019-03-18T19:30:29.278Z,61.07
2019-03-18T19:33:00.548Z,61.02
2019-03-18T19:35:31.855Z,60.58
2019-03-18T19:38:03.176Z,60.94
2019-03-18T19:40:34.471Z,60.91
2019-03-18T19:43:05.789Z,61.35
2019-03-18T19:45:37.178Z,61.22
2019-03-18T19:48:08.429Z,61.52
2019-03-18T19:50:39.733Z,60.53
2019-03-18T19:53:11.057Z,60.06
2019-03-18T19:55:42.355Z,60.52
2019-03-18T19:58:13.666Z,61.74
2019-03-18T20:00:44.993Z,62.03
2019-03-18T20:03:16.391Z,61.17
2019-03-18T20:05:47.656Z,61.26
2019-03-18T20:08:19.015Z,61.44
2019-03-18T20:10:50.332Z,61.40
2019-03-18T20:13:21.616Z,62.28
2019-03-18T20:15:52.989Z,63.19
2019-03-18T20:18:24.281Z,63.40
2019-03-18T20:20:56.984Z,63.10
2019-03-18T20:23:28.393Z,63.46
2019-03-18T20:25:59.696Z,63.39
2019-03-18T20:28:31.030Z,63.78
2019-03-18T20:31:02.457Z,64.07
2019-03-18T20:33:33.771Z,63.38
2019-03-18T20:36:05.217Z,63.71
2019-03-18T20:38:36.601Z,63.93
2019-03-18T20:41:07.960Z,63.81
2019-03-18T20:43:39.371Z,63.91
2019-03-18T20:46:10.767Z,63.83
2019-03-18T20:48:42.091Z,63.95
2019-03-18T20:51:13.447Z,63.93
2019-03-18T20:53:44.731Z,63.72
2019-03-18T20:56:18.813Z,63.72
2019-03-18T20:58:50.104Z,64.28
2019-03-18T21:01:21.420Z,64.40
2019-03-18T21:03:52.738Z,64.58
2019-03-18T21:06:24.050Z,64.26
2019-03-18T21:08:55.337Z,64.39
2019-03-18T21:11:26.624Z,64.47
2019-03-18T21:13:57.933Z,64.78
2019-03-18T21:16:29.223Z,64.56
2019-03-18T21:19:00.525Z,64.49
2019-03-18T21:21:31.797Z,64.50
2019-03-18T21:24:03.077Z,64.38
2019-03-18T21:26:34.504Z,64.33
2019-03-18T21:29:05.869Z,64.68
2019-03-18T21:31:37.182Z,64.91
2019-03-18T21:34:08.495Z,64.47
2019-03-18T21:36:39.783Z,64.08
2019-03-18T21:39:11.862Z,64.09
2019-03-18T21:41:43.211Z,63.97
2019-03-18T21:44:14.459Z,64.13
2019-03-18T21:46:45.787Z,64.15
2019-03-18T21:49:17.966Z,64.24
2019-03-18T21:51:49.270Z,64.10
2019-03-18T21:54:20.570Z,64.46
2019-03-18T21:56:51.861Z,64.64
2019-03-18T21:59:23.174Z,64.64
2019-03-18T22:01:54.455Z,64.86
2019-03-18T22:04:25.803Z,65.20
2019-03-18T22:06:57.153Z,65.60
2019-03-18T22:09:28.462Z,65.97
2019-03-18T22:11:59.812Z,66.42
2019-03-18T22:14:31.137Z,67.03
2019-03-18T22:17:02.423Z,67.09
2019-03-18T22:19:33.720Z,67.23
2019-03-18T22:22:05.052Z,67.51
2019-03-18T22:24:44.739Z,67.46
2019-03-18T22:27:09.297Z,68.06
2019-03-18T22:29:40.595Z,68.38
2019-03-18T22:32:11.897Z,68.20
2019-03-18T22:34:43.268Z,67.78
2019-03-18T22:37:14.583Z,68.32
2019-03-18T22:39:45.887Z,68.83
2019-03-18T22:42:17.232Z,69.37
2019-03-18T22:44:48.708Z,69.43
2019-03-18T22:47:19.974Z,69.77
2019-03-18T22:49:51.280Z,69.97
2019-03-18T22:52:22.581Z,70.33
2019-03-18T22:54:56.124Z,70.49
2019-03-18T22:57:26.889Z,70.79
2019-03-18T22:59:58.126Z,71.20
2019-03-18T23:02:29.452Z,71.33
2019-03-18T23:05:00.723Z,71.53
2019-03-18T23:07:32.043Z,71.77
2019-03-18T23:10:03.728Z,72.11
2019-03-18T23:12:35.014Z,72.29
2019-03-18T23:15:06.424Z,72.30
2019-03-18T23:17:37.738Z,72.41
2019-03-18T23:20:09.153Z,72.58
2019-03-18T23:22:40.451Z,71.63
2019-03-18T23:25:11.910Z,71.72
2019-03-18T23:27:43.174Z,71.45
2019-03-18T23:30:14.507Z,71.58
2019-03-18T23:32:45.787Z,71.88
2019-03-18T23:35:17.075Z,72.13
2019-03-18T23:37:48.416Z,72.44
2019-03-18T23:40:19.706Z,71.75
2019-03-18T23:42:51.008Z,71.64
2019-03-18T23:45:22.303Z,72.18
2019-03-18T23:47:53.763Z,72.48
2019-03-18T23:50:25.078Z,72.84
2019-03-18T23:52:56.387Z,72.94
2019-03-18T23:55:27.701Z,73.05
2019-03-18T23:57:58.988Z,73.38
